KFFO/FFO METAR and TAF weather

Enter ICAO airport designator
Station Type Date Time Source
KFFO METAR 2021/05/10 01:56 UTC NOAA

KFFO 100156Z AUTO 36007G16KT 10SM OVC018 06/03 A2998 RMK AO2 SLP159 T00610026


Station Type Date Time Source
KFFO Decoded METAR 2021/05/10 01:56 UTC NOAA

Dayton / Wright-Patterson Air Force Base, OH, United States (KFFO) 39-50N 084-03W 251M
May 09, 2021 - 09:56 PM EDT / 2021.05.10 0156 UTC
Wind: from the N (360 degrees) at 8 MPH (7 KT) gusting to 18 MPH (16 KT):0
Visibility: 10 mile(s):0
Sky conditions: overcast
Temperature: 43.0 F (6.1 C)
Dew Point: 36.7 F (2.6 C)
Relative Humidity: 78%
Pressure (altimeter): 29.98 in. Hg (1015 hPa)
ob: KFFO 100156Z AUTO 36007G16KT 10SM OVC018 06/03 A2998 RMK AO2 SLP159 T00610026
cycle: 2

Station Type Date Time Source
KFFO TAF 2021/05/09 19:06 UTC NOAA

TAF TAF KFFO 091900Z 0919/1101 35010G15KT 6000 -SHRA BR OVC005 530105 QNH2957INS
TEMPO 0919/0921 05015G25KT 3200 -TSRA BR SCT007 OVC012CB
BECMG 0919/0921 02010G15KT 9999 NSW BKN007 OVC012 520105 QNH2961INS
TEMPO 0921/0924 01015G25KT SCT007 OVC012
BECMG 0922/0924 01010G15KT 9999 OVC012 510103 QNH2977INS
TEMPO 1000/1005 01015G25KT
BECMG 1004/1005 01007KT 8000 BR OVC010 510103 QNH2992INS
BECMG 1012/1013 36007KT 9999 NSW FEW020 QNH3008INS
BECMG 1016/1017 36012KT 9999 FEW050 SCT180 QNH3009INS
BECMG 1022/1023 34007KT 9999 SCT050 BKN180 QNH3011INS TX13/1018Z TN02/1010Z

Example: see airport list